Terminal Aerodrome Forecast
Issued by NWS

Home | Current Version | Previous Version | Text Only | Print | Product List | Glossary On
Versions: 1 2 3 4 5 6 7 8 9 10 11 12
000
FTUS44 KOUN 232320
TAFLAW
TAF
KLAW 232320Z 2400/2424 18025G34KT P6SM SCT200
     FM240400 18019G29KT P6SM BKN120
     FM241800 20024G30KT P6SM SKC
     FM242100 24025G32KT P6SM OVC100=

USA.gov is the U.S. government's official web portal to all federal, state and local government web resources and services.